ADDS METAR Data INFO
IDs: Format: Raw Decoded Include TAF

Data at: 0339 UTC 19 Jul 2018

KDNL 190253Z AUTO 13006KT 10SM FEW011 BKN037 BKN044 28/26 A2996 RMK AO2 LTG DSNT E AND SE SLP139 T02780256 53019
KDNL 190153Z AUTO 17003KT 10SM SCT049 29/26 A2993 RMK AO2 LTG DSNT E SLP129 T02890261
KDNL 190053Z AUTO 00000KT 10SM CLR 30/25 A2993 RMK AO2 SLP127 T03000250
KDNL 182353Z AUTO 00000KT 10SM CLR 31/25 A2990 RMK AO2 SLP119 T03060250 10328 20267 53002
KDNL 182253Z AUTO 14004KT 10SM BKN110 32/24 A2989 RMK AO2 SLP116 T03170239
KDNL 182153Z AUTO 00000KT 10SM CLR 32/24 A2989 RMK AO2 SLP116 T03170244
KDNL 182053Z AUTO VRB04KT 10SM CLR 31/23 A2990 RMK AO2 SLP117 T03110228 58012
KDNL 182007Z AUTO 20006KT 10SM CLR 29/22 A2992 RMK AO2 LTG DSNT SE-SW T02890217
KDNL 181953Z AUTO 00000KT 10SM VCTS CLR 27/22 A2993 RMK AO2 LTG DSNT SE-SW TSE47 SLP128 T02720217
KDNL 181853Z AUTO 14009KT 10SM TS BKN039 29/22 A2993 RMK AO2 LTG DSNT S-W TSB46 SLP129 T02890217
KDNL 181849Z AUTO 14006KT 10SM TS BKN039 29/22 A2993 RMK AO2 LTG DSNT S-W TSB46
KDNL 181832Z AUTO 01008KT 10SM VCTS BKN040 BKN050 33/23 A2992 RMK AO2 LTG DSNT S AND W T03280233
KDNL 181753Z AUTO 00000KT 10SM BKN038 BKN046 32/23 A2993 RMK AO2 LTG DSNT S SLP130 T03220233 10333 20250 58015
KDNL 181653Z AUTO 00000KT 10SM FEW043 33/23 A2996 RMK AO2 LTG DSNT SW SLP137 T03280233
KDNL 181553Z AUTO VRB03KT 10SM CLR 32/24 A2997 RMK AO2 SLP143 T03170239
KDNL 181536Z AUTO 00000KT 10SM SCT023 31/24 A2998 RMK AO2 T03060239
KDNL 181526Z AUTO 33005KT 10SM BKN023 31/24 A2998 RMK AO2 T03110239
KDNL 181453Z AUTO 03004KT 10SM FEW120 30/24 A2998 RMK AO2 SLP145 T03000244 50004
KDNL 181353Z AUTO 32004KT 10SM BKN110 28/24 A2998 RMK AO2 SLP146 T02830239
KDNL 181253Z AUTO 26004KT 10SM CLR 27/24 A2998 RMK AO2 SLP144 T02720239
KDNL 181153Z AUTO 00000KT 10SM FEW006 FEW110 25/23 A2997 RMK AO2 SLP141 T02500233 10267 20239 53015
KDNL 181119Z AUTO 00000KT 10SM FEW008 24/23 A2996 RMK AO2 T02390233
KDNL 181053Z AUTO 20003KT 10SM CLR 24/23 A2995 RMK AO2 SLP134 T02440233
KDNL 180953Z AUTO 22003KT 10SM CLR 24/23 A2994 RMK AO2 SLP131 T02440228
KDNL 180853Z AUTO 20003KT 10SM CLR 25/23 A2992 RMK AO2 SLP126 T02500228 56007
KDNL 180753Z AUTO 00000KT 10SM CLR 26/23 A2992 RMK AO2 SLP126 T02560228
KDNL 180653Z AUTO 21005KT 10SM CLR 26/22 A2994 RMK AO2 SLP130 T02560222
KDNL 180553Z AUTO 23004KT 10SM CLR 27/23 A2995 RMK AO2 SLP134 T02670228 10328 20267 58003
KDNL 180453Z AUTO 00000KT 10SM FEW033 28/23 A2996 RMK AO2 PRESFR SLP137 T02780233 403440239
KDNL 180353Z AUTO 29004KT 10SM CLR 28/22 A2998 RMK AO2 LTG DSNT N AND NE SLP146 T02780222
KDNL 180253Z AUTO 21005KT 10SM CLR 28/22 A2995 RMK AO2 LTG DSNT NW-NE SLP137 T02780222 51011
KDNL 180153Z AUTO 20008KT 10SM CLR 29/24 A2995 RMK AO2 SLP136 T02890239
KDNL 180053Z AUTO 22008KT 10SM FEW048 FEW060 SCT080 30/25 A2995 RMK AO2 SLP134 T03000250
KDNL 172353Z AUTO 21006KT 10SM CLR 33/23 A2992 RMK AO2 SLP125 T03280228 10344 20311 58002
KDNL 172253Z AUTO VRB04KT 10SM CLR 33/22 A2993 RMK AO2 SLP130 T03330222
KDNL 172153Z AUTO VRB04KT 10SM CLR 34/22 A2993 RMK AO2 SLP128 T03390222
KDNL 172053Z AUTO 23006KT 10SM FEW046 SCT060 34/23 A2993 RMK AO2 SLP128 T03440228 56021
KDNL 171953Z AUTO 27007KT 10SM FEW042 SCT060 33/22 A2993 RMK AO2 SLP129 T03330222
KDNL 171853Z AUTO 27007KT 210V290 10SM SCT034 SCT042 32/24 A2995 RMK AO2 SLP135 T03220239
KDNL 171753Z AUTO 16006KT 10SM FEW028 SCT048 SCT060 31/24 A2999 RMK AO2 SLP149 T03110244 10322 20244 58012
KDNL 171653Z AUTO 00000KT 10SM FEW021 SCT030 30/25 A3001 RMK AO2 SLP158 T03000250
KDNL 171651Z AUTO 27004KT 10SM FEW021 SCT030 30/24 A3001 RMK AO2
KDNL 171553Z AUTO 23004KT 10SM BKN017 BKN023 29/24 A3003 RMK AO2 SLP162 T02890244